Time;durP1;ratioP1;P1;durP2;ratioP2;P2;SDS_P1;SDS_P2;PMS_P1;PMS_P2;Temp;Humidity;BMP_temperature;BMP_pressure;BME280_temperature;BME280_humidity;BME280_pressure;Samples;Min_cycle;Max_cycle;Signal;HPM_P1;HPM_P2
2023/05/09 00:00:30;;;;;;;5.50;5.00;;;10.50;1.00;;;;;;6280097;22;20401;-80
2023/05/09 00:02:57;;;;;;;6.10;5.43;;;10.60;99.90;;;;;;6282299;22;20402;-81
2023/05/09 00:05:24;;;;;;;6.20;5.07;;;10.60;99.90;;;;;;6280730;22;20488;-81
2023/05/09 00:07:51;;;;;;;6.40;5.80;;;10.50;99.90;;;;;;6280561;22;20439;-80
2023/05/09 00:10:18;;;;;;;7.17;6.10;;;10.60;99.90;;;;;;6280094;22;20944;-80
2023/05/09 00:12:46;;;;;;;8.07;5.67;;;10.50;99.90;;;;;;6280743;22;20790;-80
2023/05/09 00:15:14;;;;;;;8.30;5.70;;;10.50;99.90;;;;;;6280497;22;20810;-80
2023/05/09 00:17:41;;;;;;;5.77;5.20;;;10.50;99.90;;;;;;6280584;22;20454;-80
2023/05/09 00:20:11;;;;;;;4.90;4.50;;;10.40;99.90;;;;;;6281229;22;20480;-80
2023/05/09 00:22:39;;;;;;;5.27;4.77;;;10.40;1.00;;;;;;6282743;22;20753;-79
2023/05/09 00:25:07;;;;;;;7.07;5.23;;;10.40;99.90;;;;;;6283076;22;20405;-79
2023/05/09 00:27:34;;;;;;;6.47;5.83;;;10.40;99.90;;;;;;6283224;22;20419;-80
2023/05/09 00:30:01;;;;;;;5.47;4.90;;;10.40;99.90;;;;;;6282887;22;20401;-80
2023/05/09 00:32:29;;;;;;;5.00;4.60;;;10.20;1.00;;;;;;6282973;22;20500;-80
2023/05/09 00:34:56;;;;;;;4.93;4.20;;;10.40;99.90;;;;;;6287252;22;20409;-80
2023/05/09 00:37:23;;;;;;;6.13;5.00;;;10.30;99.90;;;;;;6298186;22;20412;-80
2023/05/09 00:39:50;;;;;;;7.43;5.13;;;10.40;99.90;;;;;;6295312;22;20435;-80
2023/05/09 00:42:17;;;;;;;5.53;5.03;;;10.40;99.90;;;;;;6283983;22;20777;-81
2023/05/09 00:44:44;;;;;;;5.60;5.10;;;10.30;99.90;;;;;;6283079;22;20403;-81
2023/05/09 00:47:10;;;;;;;6.43;5.87;;;10.30;99.90;;;;;;6282588;22;20408;-81
2023/05/09 00:49:39;;;;;;;4.43;4.03;;;10.40;99.90;;;;;;6283094;22;20458;-80
2023/05/09 00:52:06;;;;;;;5.73;4.70;;;10.40;99.90;;;;;;6284296;22;20441;-79
2023/05/09 00:54:33;;;;;;;4.50;4.10;;;10.40;99.90;;;;;;6284915;22;20383;-80
2023/05/09 00:57:00;;;;;;;6.10;4.60;;;10.40;99.90;;;;;;6282927;22;20488;-81
2023/05/09 00:59:27;;;;;;;19.13;4.80;;;10.40;99.90;;;;;;6290359;22;20469;-80
2023/05/09 01:01:54;;;;;;;7.67;5.07;;;10.30;99.90;;;;;;6296647;22;20391;-80
2023/05/09 01:04:21;;;;;;;6.73;5.80;;;10.30;99.90;;;;;;6292931;22;20437;-80
2023/05/09 01:06:57;;;;;;;5.30;4.40;;;10.30;99.90;;;;;;6291240;22;20383;-80
2023/05/09 01:09:31;;;;;;;6.23;4.70;;;10.20;99.90;;;;;;6293154;22;20512;-80
2023/05/09 01:12:10;;;;;;;5.13;4.63;;;10.20;99.90;;;;;;6296189;22;20412;-80
2023/05/09 01:14:44;;;;;;;5.17;4.67;;;10.30;99.90;;;;;;6306681;22;20355;-80
2023/05/09 01:17:16;;;;;;;8.80;4.23;;;10.20;99.90;;;;;;6306501;22;20377;-79
2023/05/09 01:20:04;;;;;;;5.17;4.23;;;10.30;99.90;;;;;;6304939;22;20378;-80
2023/05/09 01:22:36;;;;;;;4.80;3.60;;;10.40;1.00;;;;;;6298207;22;20422;-80
2023/05/09 01:25:15;;;;;;;5.30;3.60;;;10.20;99.90;;;;;;6296335;22;20374;-79
2023/05/09 01:27:50;;;;;;;4.70;4.10;;;10.20;99.90;;;;;;6305794;22;20381;-80
2023/05/09 01:30:20;;;;;;;4.40;4.00;;;10.30;1.00;;;;;;6304181;22;20359;-80
2023/05/09 01:32:49;;;;;;;4.33;4.03;;;10.20;99.90;;;;;;6289351;22;20410;-80
2023/05/09 01:35:17;;;;;;;4.60;4.20;;;10.30;99.90;;;;;;6286151;22;20488;-81
2023/05/09 01:37:49;;;;;;;5.37;3.90;;;10.10;99.90;;;;;;6288187;22;20425;-81
2023/05/09 01:40:20;;;;;;;4.60;4.30;;;10.20;99.90;;;;;;6296076;22;20877;-80
2023/05/09 01:42:51;;;;;;;4.53;4.13;;;10.10;99.90;;;;;;6295688;22;20469;-88
2023/05/09 01:45:22;;;;;;;5.37;4.40;;;10.10;99.90;;;;;;6295616;22;20373;-88
2023/05/09 01:47:50;;;;;;;5.37;4.33;;;10.10;99.90;;;;;;6294244;22;20432;-87
2023/05/09 01:50:20;;;;;;;3.80;3.50;;;10.00;99.90;;;;;;6299173;22;20389;-88
2023/05/09 01:52:52;;;;;;;4.73;4.07;;;10.00;99.90;;;;;;6295809;22;20425;-88
2023/05/09 01:55:24;;;;;;;4.23;3.83;;;10.00;99.90;;;;;;6294277;22;20387;-87
2023/05/09 01:57:52;;;;;;;8.20;4.10;;;10.10;99.90;;;;;;6293216;22;20398;-87
2023/05/09 02:00:22;;;;;;;4.00;3.70;;;10.10;99.90;;;;;;6293300;22;20368;-87
2023/05/09 02:02:50;;;;;;;7.33;4.37;;;10.10;99.90;;;;;;6290669;22;20712;-87
2023/05/09 02:05:18;;;;;;;4.40;4.10;;;10.10;99.90;;;;;;6292660;22;20988;-87
2023/05/09 02:07:47;;;;;;;4.90;4.40;;;10.10;99.90;;;;;;6296323;22;20383;-88
2023/05/09 02:10:16;;;;;;;4.73;3.07;;;10.10;99.90;;;;;;6305294;22;20386;-87
2023/05/09 02:12:43;;;;;;;5.40;3.37;;;10.30;99.90;;;;;;6297346;22;20872;-86
2023/05/09 02:17:53;;;;;;;3.83;3.53;;;10.20;99.90;;;;;;6296558;22;20374;-88
2023/05/09 02:20:20;;;;;;;4.77;3.67;;;10.10;99.90;;;;;;6304419;22;20389;-88
2023/05/09 02:22:48;;;;;;;4.33;3.43;;;;;;;;;;6294873;22;20426;-87
2023/05/09 02:25:17;;;;;;;3.47;3.10;;;;;;;;;;6292317;22;20407;-88
2023/05/09 02:27:46;;;;;;;3.20;2.80;;;10.10;99.90;;;;;;6290373;22;20383;-87
2023/05/09 02:30:22;;;;;;;7.33;3.60;;;10.00;99.90;;;;;;6291911;22;20398;-87
2023/05/09 02:32:50;;;;;;;3.13;2.93;;;10.10;99.90;;;;;;6295861;22;20471;-87
2023/05/09 02:35:23;;;;;;;5.27;3.67;;;10.30;99.90;;;;;;6301266;22;20435;-88
2023/05/09 02:37:52;;;;;;;3.73;3.33;;;10.10;99.90;;;;;;6301818;22;20889;-88
2023/05/09 02:40:20;;;;;;;3.63;3.33;;;10.10;99.90;;;;;;6297822;22;20400;-87
2023/05/09 02:42:48;;;;;;;3.43;3.13;;;;;;;;;;6298984;22;20433;-87
2023/05/09 02:45:15;;;;;;;4.10;3.23;;;10.10;99.90;;;;;;6300315;22;20411;-87
2023/05/09 02:47:43;;;;;;;3.73;3.43;;;;;;;;;;6298669;22;20381;-87
2023/05/09 02:50:12;;;;;;;8.17;3.37;;;10.00;99.90;;;;;;6296651;22;20440;-87
2023/05/09 02:52:41;;;;;;;5.30;4.00;;;10.00;99.90;;;;;;6295757;22;20404;-87
2023/05/09 02:55:10;;;;;;;3.93;2.70;;;;;;;;;;6298269;22;20402;-88
2023/05/09 02:57:37;;;;;;;3.83;3.43;;;;;;;;;;6298675;22;20413;-88
2023/05/09 03:00:08;;;;;;;4.30;3.90;;;10.00;99.90;;;;;;6298499;22;20376;-87
2023/05/09 03:02:37;;;;;;;3.80;2.80;;;;;;;;;;6297918;22;20914;-88
2023/05/09 03:05:05;;;;;;;4.00;3.60;;;;;;;;;;6299348;22;20405;-88
2023/05/09 03:07:36;;;;;;;4.07;3.77;;;;;;;;;;6300901;22;20441;-87
2023/05/09 03:10:15;;;;;;;4.50;3.70;;;9.80;99.90;;;;;;6300705;22;20443;-88
2023/05/09 03:21:28;;;;;;;3.40;3.13;;;9.70;99.90;;;;;;5104580;27;1563915;-87
2023/05/09 03:23:55;;;;;;;4.90;3.83;;;;;;;;;;5157046;27;20173;-87
2023/05/09 03:26:25;;;;;;;5.63;4.23;;;;;;;;;;5157142;27;20428;-87
2023/05/09 03:29:02;;;;;;;3.70;3.30;;;;;;;;;;5155931;27;20420;-87
2023/05/09 03:31:30;;;;;;;4.20;3.80;;;;;;;;;;5152924;27;20455;-87
2023/05/09 03:33:58;;;;;;;6.17;4.93;;;;;;;;;;5152292;27;20425;-87
2023/05/09 03:36:26;;;;;;;4.53;3.50;;;9.70;99.90;;;;;;5145163;28;20472;-87
2023/05/09 03:38:54;;;;;;;5.83;4.03;;;;;;;;;;5144307;28;20932;-87
2023/05/09 03:41:21;;;;;;;4.43;3.47;;;;;;;;;;5146023;27;20451;-87
2023/05/09 03:43:49;;;;;;;14.23;4.00;;;;;;;;;;5146701;28;20496;-87
2023/05/09 03:46:16;;;;;;;4.73;4.27;;;;;;;;;;5145893;28;20422;-87
2023/05/09 03:48:47;;;;;;;5.03;3.40;;;;;;;;;;5147466;28;20406;-88
2023/05/09 03:51:15;;;;;;;7.40;3.50;;;;;;;;;;5156730;27;20463;-87
2023/05/09 03:53:47;;;;;;;4.30;3.67;;;9.50;99.90;;;;;;5157055;27;20413;-90
2023/05/09 03:56:14;;;;;;;4.53;3.87;;;;;;;;;;5156841;27;20423;-88
2023/05/09 03:58:44;;;;;;;4.00;3.40;;;;;;;;;;5262588;22;20522;-87
2023/05/09 04:01:12;;;;;;;3.93;3.40;;;;;;;;;;5127893;28;20445;-87
2023/05/09 04:03:40;;;;;;;7.03;4.00;;;;;;;;;;5131024;28;20424;-87
2023/05/09 04:06:07;;;;;;;4.90;3.60;;;8.80;99.90;;;;;;5135372;27;20891;-87
2023/05/09 04:08:35;;;;;;;4.97;4.00;;;;;;;;;;5125596;28;20453;-87
2023/05/09 04:11:04;;;;;;;3.67;3.37;;;9.50;99.90;;;;;;5128047;28;20498;-87
2023/05/09 04:13:32;;;;;;;4.30;3.90;;;;;;;;;;5126349;28;20447;-87
2023/05/09 04:16:00;;;;;;;4.30;3.90;;;9.60;99.90;;;;;;5126489;28;20440;-87
2023/05/09 04:18:28;;;;;;;6.80;3.73;;;;;;;;;;5128310;28;20424;-87
2023/05/09 04:20:55;;;;;;;5.63;4.80;;;;;;;;;;5133969;27;20920;-87
2023/05/09 04:23:23;;;;;;;6.23;4.50;;;;;;;;;;5132196;27;20447;-89
2023/05/09 04:25:53;;;;;;;4.40;4.03;;;9.60;99.90;;;;;;5125357;28;20456;-87
2023/05/09 04:28:21;;;;;;;4.80;4.40;;;9.60;99.90;;;;;;5128781;28;20414;-87
2023/05/09 04:30:50;;;;;;;49.67;10.40;;;9.60;99.90;;;;;;5123600;28;20670;-89
2023/05/09 04:33:18;;;;;;;5.33;4.40;;;;;;;;;;5121972;28;20493;-88
2023/05/09 04:35:45;;;;;;;4.70;3.90;;;9.50;99.90;;;;;;5118588;28;20565;-87
2023/05/09 04:38:12;;;;;;;6.27;4.83;;;;;;;;;;5117298;28;20412;-87
2023/05/09 04:40:40;;;;;;;5.40;3.70;;;;;;;;;;5117349;28;20476;-88
2023/05/09 04:43:07;;;;;;;5.17;4.67;;;;;;;;;;5095217;28;20452;-88
2023/05/09 04:45:36;;;;;;;5.40;4.47;;;9.70;99.90;;;;;;5108983;28;20466;-86
2023/05/09 04:48:04;;;;;;;5.90;5.30;;;;;;;;;;5109540;28;20451;-87
2023/05/09 04:50:31;;;;;;;7.90;4.97;;;;;;;;;;5111348;28;20487;-87
2023/05/09 04:52:58;;;;;;;5.93;4.57;;;;;;;;;;5109979;28;20493;-87
2023/05/09 04:55:25;;;;;;;6.70;5.13;;;;;;;;;;5107208;28;20450;-87
2023/05/09 04:57:52;;;;;;;4.90;4.50;;;9.80;99.90;;;;;;5107759;28;20469;-87
2023/05/09 05:00:20;;;;;;;6.53;4.20;;;9.60;1.00;;;;;;5108630;28;20491;-87
2023/05/09 05:02:48;;;;;;;5.80;4.83;;;9.90;99.90;;;;;;5111344;28;20490;-87
2023/05/09 05:05:15;;;;;;;5.47;4.87;;;9.90;1.00;;;;;;5112407;28;20463;-87
2023/05/09 05:07:42;;;;;;;5.77;5.17;;;;;;;;;;5109126;28;20842;-87
2023/05/09 05:10:10;;;;;;;5.30;4.57;;;;;;;;;;5107411;28;20487;-88
2023/05/09 05:12:37;;;;;;;8.33;4.03;;;;;;;;;;5107276;28;20472;-88
2023/05/09 05:15:05;;;;;;;6.33;4.77;;;10.10;99.90;;;;;;5108708;28;20483;-87
2023/05/09 05:17:33;;;;;;;5.80;5.20;;;;;;;;;;5108677;28;20509;-87
2023/05/09 05:20:02;;;;;;;7.73;4.23;;;10.20;99.90;;;;;;5107962;28;20500;-88
2023/05/09 05:22:29;;;;;;;6.70;4.20;;;10.20;1.00;;;;;;5107785;28;20461;-87
2023/05/09 05:24:56;;;;;;;8.23;5.47;;;;;;;;;;5104988;28;20939;-87
2023/05/09 05:27:23;;;;;;;7.77;5.03;;;;;;;;;;5103555;28;20449;-87
2023/05/09 05:29:54;;;;;;;8.90;5.27;;;;;;;;;;5103743;28;20432;-87
2023/05/09 05:32:21;;;;;;;6.13;4.17;;;;;;;;;;5104591;28;20517;-89
2023/05/09 05:34:48;;;;;;;8.23;4.93;;;10.70;1.00;;;;;;5107151;28;20462;-87
2023/05/09 05:37:16;;;;;;;5.37;4.73;;;10.50;99.90;;;;;;5105500;28;20520;-88
2023/05/09 05:39:43;;;;;;;7.97;3.77;;;;;;;;;;5104034;28;21014;-87
2023/05/09 05:42:12;;;;;;;5.20;4.70;;;10.60;99.90;;;;;;5105054;28;20495;-87
2023/05/09 05:44:50;;;;;;;6.73;4.10;;;10.90;99.90;;;;;;5104003;28;20468;-87
2023/05/09 05:47:17;;;;;;;5.03;4.03;;;;;;;;;;5108687;28;20439;-87
2023/05/09 05:49:45;;;;;;;10.87;5.10;;;;;;;;;;5105299;28;20464;-88
2023/05/09 05:52:12;;;;;;;6.83;4.30;;;;;;;;;;5116932;28;20475;-88
2023/05/09 05:54:54;;;;;;;6.10;4.10;;;11.10;99.90;;;;;;5106419;28;20444;-88
2023/05/09 05:57:22;;;;;;;7.00;4.20;;;;;;;;;;5119197;28;20460;-87
2023/05/09 05:59:50;;;;;;;5.07;4.50;;;11.10;99.90;;;;;;5119678;28;21085;-88
2023/05/09 06:02:17;;;;;;;4.17;3.73;;;;;;;;;;5114523;28;20434;-87
2023/05/09 06:04:44;;;;;;;4.93;4.30;;;;;;;;;;5113962;28;20445;-87
2023/05/09 06:07:12;;;;;;;5.97;3.53;;;11.30;99.90;;;;;;5107540;28;20468;-87
2023/05/09 06:09:44;;;;;;;4.50;4.10;;;11.20;99.90;;;;;;5110792;28;20467;-87
2023/05/09 06:12:15;;;;;;;42.20;32.63;;;11.20;99.90;;;;;;5106496;28;20482;-87
2023/05/09 06:14:42;;;;;;;4.40;4.03;;;;;;;;;;5107189;28;20452;-88
2023/05/09 06:17:10;;;;;;;3.97;3.63;;;11.40;99.90;;;;;;5108794;28;20443;-87
2023/05/09 06:19:37;;;;;;;7.67;3.90;;;11.40;99.90;;;;;;5104793;28;20472;-87
2023/05/09 06:22:03;;;;;;;4.60;3.43;;;11.50;99.90;;;;;;5102232;28;20548;-85
2023/05/09 06:24:30;;;;;;;5.87;4.37;;;11.50;99.90;;;;;;5111905;28;20855;-86
2023/05/09 06:26:59;;;;;;;5.07;3.73;;;11.60;99.90;;;;;;5113315;28;20514;-86
2023/05/09 06:29:25;;;;;;;4.40;4.00;;;11.60;99.90;;;;;;5112885;28;20500;-87
2023/05/09 06:31:52;;;;;;;4.23;3.87;;;11.60;99.90;;;;;;5113936;28;20520;-87
2023/05/09 06:34:19;;;;;;;5.07;4.33;;;12.00;99.90;;;;;;5114134;28;20456;-86
2023/05/09 06:36:49;;;;;;;5.17;4.60;;;11.70;99.90;;;;;;5116707;28;20432;-86
2023/05/09 06:39:18;;;;;;;6.63;3.50;;;12.00;1.00;;;;;;5113757;28;20492;-86
2023/05/09 06:41:45;;;;;;;4.77;3.67;;;12.10;1.00;;;;;;5104734;28;20484;-86
2023/05/09 06:44:13;;;;;;;8.27;3.90;;;11.90;99.90;;;;;;5104924;28;20493;-87
2023/05/09 06:46:40;;;;;;;6.20;4.10;;;11.80;1.00;;;;;;5103525;28;20440;-86
2023/05/09 06:49:08;;;;;;;5.70;3.70;;;11.90;99.90;;;;;;5101839;28;20500;-86
2023/05/09 06:51:35;;;;;;;6.80;4.43;;;12.50;99.90;;;;;;5105671;28;20558;-86
2023/05/09 06:54:02;;;;;;;7.53;4.00;;;11.90;99.90;;;;;;5110938;28;20450;-86
2023/05/09 06:56:30;;;;;;;7.93;4.57;;;14.00;99.90;;;;;;5105720;28;20492;-86
2023/05/09 06:58:57;;;;;;;10.17;5.10;;;;;;;;;;5105004;28;20452;-86
2023/05/09 07:01:25;;;;;;;13.43;5.07;;;12.30;1.00;;;;;;5105254;28;20484;-86
2023/05/09 07:03:52;;;;;;;5.83;5.20;;;;;;;;;;5105289;28;20476;-86
2023/05/09 07:06:19;;;;;;;5.03;4.00;;;12.70;99.90;;;;;;5100997;28;20472;-86
2023/05/09 07:08:46;;;;;;;4.80;4.30;;;12.60;1.00;;;;;;5102904;28;20527;-85
2023/05/09 07:11:13;;;;;;;6.13;4.20;;;12.70;99.90;;;;;;5108755;28;20522;-87
2023/05/09 07:13:40;;;;;;;5.90;5.00;;;12.60;99.90;;;;;;5104878;28;20440;-86
2023/05/09 07:16:07;;;;;;;5.57;5.07;;;12.30;99.90;;;;;;5108132;28;20478;-86
2023/05/09 07:18:35;;;;;;;11.00;4.30;;;12.50;99.90;;;;;;5108331;28;20484;-84
2023/05/09 07:21:02;;;;;;;5.23;3.70;;;;;;;;;;5108712;28;20488;-86
2023/05/09 07:23:29;;;;;;;14.30;4.30;;;12.60;1.00;;;;;;5107972;28;20547;-86
2023/05/09 07:25:57;;;;;;;9.40;5.33;;;;;;;;;;5106385;28;20511;-86
2023/05/09 07:28:24;;;;;;;22.63;6.27;;;12.80;99.90;;;;;;5110199;28;20468;-86
2023/05/09 07:30:51;;;;;;;4.10;3.50;;;13.10;1.00;;;;;;5113348;28;20429;-86
2023/05/09 07:33:18;;;;;;;4.23;3.90;;;12.30;99.90;;;;;;5111807;28;20923;-86
2023/05/09 07:35:46;;;;;;;4.20;3.70;;;12.80;99.90;;;;;;5112895;28;20957;-85
2023/05/09 07:38:13;;;;;;;17.17;6.30;;;13.30;1.00;;;;;;5102707;28;20479;-86
2023/05/09 07:40:40;;;;;;;9.40;3.87;;;13.40;1.00;;;;;;5104376;28;20511;-86
2023/05/09 07:43:07;;;;;;;4.50;4.03;;;13.10;99.90;;;;;;5131827;22;20811;-88
2023/05/09 07:45:35;;;;;;;11.70;4.17;;;13.10;99.90;;;;;;5101060;28;20441;-88
2023/05/09 07:48:02;;;;;;;5.40;4.10;;;13.70;1.00;;;;;;5104510;28;20455;-87
2023/05/09 07:50:29;;;;;;;6.33;4.40;;;13.40;99.90;;;;;;5103595;28;20519;-87
2023/05/09 07:52:57;;;;;;;7.60;4.20;;;13.90;1.00;;;;;;5101399;28;20474;-88
2023/05/09 07:55:24;;;;;;;6.00;3.83;;;13.60;99.90;;;;;;5100597;28;20452;-89
2023/05/09 07:57:51;;;;;;;5.93;4.47;;;13.50;99.90;;;;;;5099498;28;20512;-89
2023/05/09 08:00:22;;;;;;;6.57;3.80;;;13.60;99.90;;;;;;5099172;28;20896;-88
2023/05/09 08:02:50;;;;;;;18.40;5.40;;;13.60;99.90;;;;;;5100253;28;20477;-88
2023/05/09 08:05:17;;;;;;;12.73;3.70;;;13.50;99.90;;;;;;5098638;28;20448;-88
2023/05/09 08:07:44;;;;;;;13.50;3.80;;;13.60;99.90;;;;;;5105023;28;20448;-88
2023/05/09 08:10:14;;;;;;;8.43;5.17;;;13.70;99.90;;;;;;5110921;28;20524;-89
2023/05/09 08:12:41;;;;;;;3.30;2.90;;;13.70;99.90;;;;;;5113600;28;20456;-90
2023/05/09 08:15:09;;;;;;;6.67;4.13;;;13.90;99.90;;;;;;5103597;28;21010;-90
2023/05/09 08:17:36;;;;;;;4.20;3.73;;;13.90;99.90;;;;;;5103391;28;20946;-87
2023/05/09 08:20:04;;;;;;;4.10;3.50;;;13.90;99.90;;;;;;5112927;28;20452;-87
2023/05/09 08:22:31;;;;;;;4.30;3.90;;;13.90;99.90;;;;;;5118628;28;20472;-88
2023/05/09 08:24:58;;;;;;;4.40;3.97;;;14.00;99.90;;;;;;5109066;28;20991;-88
2023/05/09 08:27:27;;;;;;;4.90;4.40;;;14.00;1.00;;;;;;5119462;28;20429;-86
2023/05/09 08:29:54;;;;;;;6.30;3.53;;;14.50;1.00;;;;;;5121831;28;20451;-86
2023/05/09 08:32:21;;;;;;;3.83;3.43;;;;;;;;;;5121316;28;20464;-88
2023/05/09 08:34:51;;;;;;;7.90;3.13;;;14.50;99.90;;;;;;5119921;28;20436;-88
2023/05/09 08:37:18;;;;;;;3.97;3.60;;;;;;;;;;5115131;28;20413;-89
2023/05/09 08:39:45;;;;;;;4.53;3.80;;;;;;;;;;5111728;28;20946;-88
2023/05/09 08:42:14;;;;;;;4.20;3.60;;;14.50;99.90;;;;;;5103993;28;20467;-90
2023/05/09 08:44:43;;;;;;;6.40;4.47;;;14.60;99.90;;;;;;5104217;28;20444;-88
2023/05/09 08:47:10;;;;;;;7.60;4.63;;;;;;;;;;5102169;28;20535;-89
2023/05/09 08:49:37;;;;;;;7.47;3.93;;;;;;;;;;5101539;28;20463;-89
2023/05/09 08:52:05;;;;;;;5.73;3.80;;;14.60;99.90;;;;;;5102369;28;20460;-88
2023/05/09 08:54:33;;;;;;;4.10;3.80;;;;;;;;;;5102537;28;20491;-89
2023/05/09 08:57:01;;;;;;;5.80;4.40;;;14.50;1.00;;;;;;5102722;28;20433;-88
2023/05/09 08:59:28;;;;;;;3.93;3.63;;;15.00;99.90;;;;;;5101362;28;20476;-89
2023/05/09 09:01:57;;;;;;;5.43;3.70;;;14.90;99.90;;;;;;5100684;28;20484;-88
2023/05/09 09:04:25;;;;;;;7.07;4.00;;;;;;;;;;5110518;28;20456;-88
2023/05/09 09:06:53;;;;;;;4.37;3.77;;;15.00;99.90;;;;;;5101596;28;20446;-90
2023/05/09 09:09:21;;;;;;;5.40;4.93;;;15.10;99.90;;;;;;5101893;28;20450;-88
2023/05/09 09:11:48;;;;;;;4.43;4.03;;;15.20;99.90;;;;;;5102964;28;20452;-88
2023/05/09 09:14:20;;;;;;;5.57;4.10;;;15.30;99.90;;;;;;5101693;28;20459;-89
2023/05/09 09:16:48;;;;;;;5.10;4.10;;;15.30;99.90;;;;;;5101329;28;20421;-88
2023/05/09 09:19:17;;;;;;;7.17;3.90;;;15.30;1.00;;;;;;5100749;28;20433;-88
2023/05/09 09:21:47;;;;;;;5.20;3.97;;;15.60;99.90;;;;;;5100298;28;20490;-88
2023/05/09 09:24:14;;;;;;;10.13;4.03;;;15.60;99.90;;;;;;5101280;28;20436;-89
2023/05/09 09:26:47;;;;;;;23.33;8.10;;;15.70;99.90;;;;;;5100910;28;20492;-88
2023/05/09 09:29:14;;;;;;;9.47;4.97;;;15.70;99.90;;;;;;5101595;28;20982;-87
2023/05/09 09:31:47;;;;;;;6.07;4.27;;;15.70;99.90;;;;;;5104841;28;20552;-88
2023/05/09 09:34:22;;;;;;;7.90;4.17;;;15.80;99.90;;;;;;5106694;28;20420;-88
2023/05/09 09:36:49;;;;;;;5.17;3.67;;;15.80;99.90;;;;;;5102185;28;20887;-88
2023/05/09 09:39:16;;;;;;;7.13;3.73;;;16.10;99.90;;;;;;5103505;28;20443;-88
2023/05/09 09:41:46;;;;;;;4.47;3.63;;;15.80;1.00;;;;;;5105669;28;20571;-89
2023/05/09 09:44:14;;;;;;;9.93;4.20;;;15.90;99.90;;;;;;5099071;28;20435;-88
2023/05/09 09:46:46;;;;;;;10.87;4.13;;;16.10;99.90;;;;;;5099772;28;20445;-87
2023/05/09 09:49:14;;;;;;;4.50;4.20;;;16.10;99.90;;;;;;5100623;28;20523;-88
2023/05/09 09:51:43;;;;;;;3.87;3.60;;;16.20;99.90;;;;;;5100709;28;20461;-88
2023/05/09 09:54:11;;;;;;;5.40;3.53;;;16.20;1.00;;;;;;5105008;28;20533;-89
2023/05/09 09:56:39;;;;;;;4.90;4.50;;;16.30;99.90;;;;;;5118765;28;20437;-87
2023/05/09 09:59:11;;;;;;;7.43;3.87;;;16.50;99.90;;;;;;5119820;28;20720;-86
2023/05/09 10:01:57;;;;;;;3.80;3.43;;;16.80;99.90;;;;;;5119655;28;20484;-87
2023/05/09 10:04:31;;;;;;;5.17;3.30;;;16.40;99.90;;;;;;5119660;28;20417;-88
2023/05/09 10:07:02;;;;;;;6.13;3.53;;;16.40;99.90;;;;;;5115549;28;20460;-88
2023/05/09 10:09:29;;;;;;;3.67;3.37;;;16.40;99.90;;;;;;5114561;28;20469;-87
2023/05/09 10:11:56;;;;;;;6.00;3.43;;;16.40;99.90;;;;;;5115903;28;20498;-88
2023/05/09 10:14:26;;;;;;;6.03;4.07;;;16.50;99.90;;;;;;5112272;28;20456;-87
2023/05/09 10:16:56;;;;;;;5.53;3.23;;;16.70;99.90;;;;;;5104239;28;20444;-88
2023/05/09 10:19:26;;;;;;;5.47;3.10;;;16.70;99.90;;;;;;5103534;28;20523;-88
2023/05/09 10:21:55;;;;;;;11.33;3.63;;;16.60;99.90;;;;;;5106343;28;20468;-88
2023/05/09 10:24:28;;;;;;;8.43;6.37;;;16.50;99.90;;;;;;5105483;28;20451;-87
2023/05/09 10:27:04;;;;;;;7.13;3.93;;;17.10;1.00;;;;;;5100459;28;20442;-88
2023/05/09 10:29:35;;;;;;;9.00;4.10;;;16.80;99.90;;;;;;5099099;28;20497;-87
2023/05/09 10:32:09;;;;;;;6.73;3.97;;;16.90;99.90;;;;;;5100373;28;20529;-87
2023/05/09 10:34:42;;;;;;;4.63;3.50;;;16.90;99.90;;;;;;5102622;28;20558;-88
2023/05/09 10:37:09;;;;;;;8.73;4.00;;;17.00;99.90;;;;;;5102718;28;20417;-88
2023/05/09 10:39:38;;;;;;;6.17;4.20;;;16.80;99.90;;;;;;5108266;28;20448;-89
2023/05/09 10:42:09;;;;;;;5.57;3.40;;;16.90;99.90;;;;;;5102651;28;20484;-87
2023/05/09 10:44:37;;;;;;;5.83;4.03;;;17.20;99.90;;;;;;5107693;28;20918;-88
2023/05/09 10:47:04;;;;;;;6.07;3.53;;;16.90;99.90;;;;;;5114629;28;20485;-87
2023/05/09 10:49:34;;;;;;;4.43;4.03;;;17.60;99.90;;;;;;5118464;28;20433;-88
2023/05/09 10:52:01;;;;;;;4.30;3.60;;;17.30;99.90;;;;;;5118610;28;20483;-89
2023/05/09 10:54:40;;;;;;;5.37;4.20;;;17.10;99.90;;;;;;5116646;28;20614;-88
2023/05/09 10:57:10;;;;;;;4.93;3.37;;;17.30;99.90;;;;;;5104733;28;20448;-88
2023/05/09 10:59:40;;;;;;;5.17;4.13;;;17.70;99.90;;;;;;5100525;28;20468;-88
2023/05/09 11:02:12;;;;;;;5.57;3.83;;;17.40;99.90;;;;;;5103595;28;20551;-88
2023/05/09 11:04:40;;;;;;;4.43;3.53;;;17.40;99.90;;;;;;5099665;28;20775;-88
2023/05/09 11:07:23;;;;;;;3.70;2.80;;;17.30;99.90;;;;;;5098210;28;20533;-88
2023/05/09 11:09:52;;;;;;;5.93;3.10;;;17.30;99.90;;;;;;5098545;28;20508;-87
2023/05/09 11:12:23;;;;;;;6.77;3.40;;;17.40;99.90;;;;;;5099363;28;20547;-89
2023/05/09 11:14:52;;;;;;;6.70;4.23;;;17.20;99.90;;;;;;5099469;28;20424;-89
2023/05/09 11:17:30;;;;;;;3.27;3.00;;;17.60;99.90;;;;;;5099296;28;20441;-88
2023/05/09 11:19:59;;;;;;;8.03;3.80;;;17.80;99.90;;;;;;5100115;28;20472;-87
2023/05/09 11:22:29;;;;;;;3.40;3.00;;;18.00;99.90;;;;;;5099039;28;20571;-88
2023/05/09 11:25:05;;;;;;;5.13;3.33;;;17.70;99.90;;;;;;5099997;28;20452;-87
2023/05/09 11:27:44;;;;;;;9.67;3.67;;;17.90;99.90;;;;;;5110575;28;20494;-89
2023/05/09 11:30:14;;;;;;;11.10;3.37;;;18.00;99.90;;;;;;5118101;28;20412;-87
2023/05/09 11:32:52;;;;;;;3.87;3.40;;;17.80;99.90;;;;;;5118593;28;20448;-88
2023/05/09 11:35:20;;;;;;;4.40;3.53;;;17.80;99.90;;;;;;5112718;28;20469;-88
2023/05/09 11:37:49;;;;;;;10.03;4.07;;;17.90;99.90;;;;;;5105751;28;20445;-89
2023/05/09 11:40:17;;;;;;;4.30;3.20;;;18.00;99.90;;;;;;5103788;28;20502;-88
2023/05/09 11:42:52;;;;;;;3.40;3.07;;;18.10;99.90;;;;;;5119110;28;20490;-86
2023/05/09 11:45:19;;;;;;;8.10;3.60;;;18.10;99.90;;;;;;5121936;28;20447;-87
2023/05/09 11:47:47;;;;;;;5.30;3.50;;;18.60;99.90;;;;;;5122224;28;20436;-88
2023/05/09 11:50:15;;;;;;;5.13;4.30;;;18.20;99.90;;;;;;5106908;28;20487;-87
2023/05/09 11:52:43;;;;;;;5.03;3.33;;;18.40;99.90;;;;;;5105945;28;20489;-87
2023/05/09 11:55:12;;;;;;;4.07;3.13;;;18.10;99.90;;;;;;5113712;28;20527;-88
2023/05/09 11:57:40;;;;;;;3.23;2.93;;;18.00;99.90;;;;;;5109338;28;20505;-89
2023/05/09 12:00:11;;;;;;;3.87;3.43;;;17.90;99.90;;;;;;5104886;28;20444;-87
2023/05/09 12:02:50;;;;;;;4.87;3.33;;;17.90;99.90;;;;;;5104286;28;21002;-88
2023/05/09 12:05:20;;;;;;;4.27;3.43;;;18.90;99.90;;;;;;5105993;28;20460;-88
2023/05/09 12:07:47;;;;;;;4.47;3.90;;;18.20;99.90;;;;;;5112445;28;20547;-89
2023/05/09 12:10:21;;;;;;;7.00;3.97;;;18.20;99.90;;;;;;5109668;28;20464;-89
2023/05/09 12:12:54;;;;;;;4.63;3.93;;;18.40;99.90;;;;;;5115879;28;20975;-88
2023/05/09 12:15:22;;;;;;;4.60;3.50;;;18.40;99.90;;;;;;5110694;28;20500;-88
2023/05/09 12:18:02;;;;;;;4.30;3.07;;;18.40;99.90;;;;;;5111961;28;20467;-89
2023/05/09 12:20:39;;;;;;;14.03;4.17;;;18.80;99.90;;;;;;5106780;28;20438;-88
2023/05/09 12:23:09;;;;;;;4.70;3.80;;;18.50;99.90;;;;;;5106956;28;20511;-87
2023/05/09 12:25:38;;;;;;;4.30;3.20;;;18.60;99.90;;;;;;5114840;28;20440;-87
2023/05/09 12:28:05;;;;;;;4.80;3.70;;;18.80;99.90;;;;;;5116423;28;20455;-88
2023/05/09 12:30:34;;;;;;;7.30;3.90;;;18.80;1.00;;;;;;5114623;28;20476;-89
2023/05/09 12:33:02;;;;;;;7.37;3.50;;;;;;;;;;5112125;28;20880;-88
2023/05/09 12:35:29;;;;;;;10.80;3.97;;;;;;;;;;5112004;28;20448;-88
2023/05/09 12:38:00;;;;;;;5.63;4.20;;;18.90;99.90;;;;;;5113002;28;20439;-88
2023/05/09 12:40:27;;;;;;;4.30;3.90;;;;;;;;;;5113401;28;20450;-89
2023/05/09 12:42:59;;;;;;;7.43;3.93;;;19.00;99.90;;;;;;5111954;28;20500;-88
2023/05/09 12:45:27;;;;;;;4.67;2.97;;;;;;;;;;5107165;28;20502;-86
2023/05/09 12:47:57;;;;;;;4.83;3.40;;;18.80;99.90;;;;;;5106255;28;20620;-88
2023/05/09 12:50:35;;;;;;;4.60;3.30;;;18.70;99.90;;;;;;5104555;28;20475;-88
2023/05/09 12:53:03;;;;;;;3.93;3.43;;;18.60;99.90;;;;;;5101950;28;20465;-88
2023/05/09 12:55:31;;;;;;;6.13;3.73;;;19.10;99.90;;;;;;5103614;28;20439;-88
2023/05/09 12:58:00;;;;;;;14.13;3.60;;;18.60;99.90;;;;;;5102783;28;20459;-88
2023/05/09 13:00:27;;;;;;;5.73;3.77;;;18.50;99.90;;;;;;5102513;28;20488;-87
2023/05/09 13:02:56;;;;;;;6.00;3.80;;;18.90;99.90;;;;;;5104003;28;20549;-87
2023/05/09 13:05:23;;;;;;;9.27;4.23;;;18.80;99.90;;;;;;5111042;28;20432;-87
2023/05/09 13:07:52;;;;;;;7.30;3.50;;;18.80;99.90;;;;;;5120760;28;20432;-84
2023/05/09 13:10:23;;;;;;;4.00;3.60;;;18.70;99.90;;;;;;5120810;28;20428;-87
2023/05/09 13:12:52;;;;;;;3.30;3.00;;;;;;;;;;5116332;28;20476;-89
2023/05/09 13:15:21;;;;;;;6.87;3.30;;;18.80;99.90;;;;;;5109403;28;20474;-87
2023/05/09 13:17:49;;;;;;;5.10;3.60;;;18.80;99.90;;;;;;5108739;28;20455;-88
2023/05/09 13:20:18;;;;;;;5.10;3.53;;;19.00;99.90;;;;;;5108914;28;20450;-87
2023/05/09 13:22:45;;;;;;;8.90;3.40;;;;;;;;;;5113181;28;20480;-87
2023/05/09 13:25:13;;;;;;;3.50;3.20;;;18.80;99.90;;;;;;5118146;28;20436;-88
2023/05/09 13:27:40;;;;;;;5.00;3.97;;;;;;;;;;5118046;28;20436;-88
2023/05/09 13:30:08;;;;;;;12.03;4.00;;;18.90;99.90;;;;;;5118830;28;20453;-87